Time;durP1;ratioP1;P1;durP2;ratioP2;P2;SDS_P1;SDS_P2;PMS_P1;PMS_P2;Temp;Humidity;BMP_temperature;BMP_pressure;BME280_temperature;BME280_humidity;BME280_pressure;Samples;Min_cycle;Max_cycle;Signal;HPM_P1;HPM_P2
2022/04/20 00:00:51;;;;;;;1999.90;999.90;;;12.40;38.10;;;;;;5033864;28;20503;-67
2022/04/20 00:03:17;;;;;;;1999.90;999.90;;;12.40;38.80;;;;;;5033890;28;20181;-67
2022/04/20 00:05:42;;;;;;;1999.90;999.90;;;12.40;39.70;;;;;;5032363;28;20196;-67
2022/04/20 00:08:08;;;;;;;1999.90;999.90;;;12.30;40.60;;;;;;5033790;28;20261;-67
2022/04/20 00:10:34;;;;;;;1999.90;999.90;;;12.30;41.00;;;;;;5033694;28;20202;-67
2022/04/20 00:12:59;;;;;;;1999.90;999.90;;;12.30;41.50;;;;;;5033704;28;20523;-67
2022/04/20 00:15:25;;;;;;;1999.90;999.90;;;12.20;41.90;;;;;;5033393;28;20177;-66
2022/04/20 00:17:51;;;;;;;1999.90;999.90;;;12.20;42.80;;;;;;5033629;28;20208;-67
2022/04/20 00:20:17;;;;;;;1999.90;999.90;;;12.20;43.70;;;;;;5033422;28;20184;-67
2022/04/20 00:22:42;;;;;;;1999.90;999.90;;;12.20;44.20;;;;;;5033562;28;20763;-66
2022/04/20 00:25:09;;;;;;;1999.90;999.90;;;12.10;43.60;;;;;;5033191;28;20527;-67
2022/04/20 00:27:38;;;;;;;1999.90;999.90;;;12.10;44.10;;;;;;5033621;28;20174;-67
2022/04/20 00:30:05;;;;;;;1999.90;999.90;;;12.00;45.40;;;;;;5033442;28;20830;-67
2022/04/20 00:32:31;;;;;;;1999.90;999.90;;;12.00;47.20;;;;;;5033336;28;20447;-67
2022/04/20 00:34:57;;;;;;;1999.90;999.90;;;11.90;47.10;;;;;;5033007;28;20411;-66
2022/04/20 00:37:23;;;;;;;1999.90;999.90;;;11.90;48.50;;;;;;5033158;28;20403;-67
2022/04/20 00:39:49;;;;;;;1999.90;999.90;;;11.80;48.00;;;;;;5033128;28;20451;-67
2022/04/20 00:42:15;;;;;;;1999.90;999.90;;;11.80;48.40;;;;;;5033158;28;20908;-66
2022/04/20 00:44:41;;;;;;;1999.90;999.90;;;11.80;49.30;;;;;;5032888;28;20202;-67
2022/04/20 00:47:09;;;;;;;1999.90;999.90;;;11.80;50.40;;;;;;5032459;28;20941;-67
2022/04/20 00:49:35;;;;;;;1999.90;999.90;;;11.70;50.00;;;;;;5032681;28;21115;-66
2022/04/20 00:52:02;;;;;;;1999.90;999.90;;;11.60;50.80;;;;;;5032961;28;20742;-67
2022/04/20 00:54:28;;;;;;;1999.90;999.90;;;11.60;51.70;;;;;;5032796;28;20829;-67
2022/04/20 00:56:54;;;;;;;1999.90;999.90;;;11.60;53.10;;;;;;5032861;28;20422;-66
2022/04/20 00:59:23;;;;;;;1999.90;999.90;;;11.50;54.30;;;;;;5033223;28;20187;-67
2022/04/20 01:01:50;;;;;;;1999.90;999.90;;;11.50;55.90;;;;;;5032673;28;20805;-67
2022/04/20 01:04:16;;;;;;;1999.90;999.90;;;11.40;57.10;;;;;;5031116;28;20415;-67
2022/04/20 01:06:42;;;;;;;1999.90;999.90;;;11.40;58.30;;;;;;5032611;28;20438;-66
2022/04/20 01:09:08;;;;;;;1999.90;999.90;;;11.40;59.20;;;;;;5032528;28;20204;-67
2022/04/20 01:11:34;;;;;;;1999.90;999.90;;;11.40;59.70;;;;;;5032559;28;20422;-67
2022/04/20 01:14:00;;;;;;;1999.90;999.90;;;11.40;63.20;;;;;;5032392;28;20407;-66
2022/04/20 01:16:26;;;;;;;1999.90;999.90;;;11.40;65.50;;;;;;5032455;28;20558;-67
2022/04/20 01:18:53;;;;;;;1999.90;999.90;;;11.30;69.70;;;;;;5032236;28;20473;-67
2022/04/20 01:21:19;;;;;;;1999.90;999.90;;;11.30;70.00;;;;;;5032382;28;20175;-67
2022/04/20 01:23:44;;;;;;;1999.90;999.90;;;11.20;68.90;;;;;;5032359;28;20457;-67
2022/04/20 01:26:11;;;;;;;1999.90;999.90;;;11.10;70.20;;;;;;5032149;28;20811;-67
2022/04/20 01:28:41;;;;;;;1999.90;999.90;;;11.10;70.70;;;;;;5032255;28;20165;-67
2022/04/20 01:31:07;;;;;;;1999.90;999.90;;;11.00;75.80;;;;;;5032304;28;20476;-67
2022/04/20 01:33:33;;;;;;;1999.90;999.90;;;11.00;76.50;;;;;;5032160;28;20415;-67
2022/04/20 01:35:59;;;;;;;1999.90;999.90;;;11.00;80.60;;;;;;5031519;28;20255;-67
2022/04/20 01:38:25;;;;;;;1999.90;999.90;;;11.00;84.80;;;;;;5032139;28;20458;-67
2022/04/20 01:40:51;;;;;;;1999.90;999.90;;;10.90;88.50;;;;;;5032155;28;20498;-66
2022/04/20 01:43:17;;;;;;;1999.90;999.90;;;10.80;86.60;;;;;;5032151;28;20172;-67
2022/04/20 01:45:42;;;;;;;1999.90;999.90;;;10.80;88.50;;;;;;5031777;28;20438;-66
2022/04/20 01:48:08;;;;;;;1999.90;999.90;;;10.70;87.80;;;;;;5032291;28;20183;-67
2022/04/20 01:51:46;;;;;;;1999.90;999.90;;;10.70;88.90;;;;;;5030748;28;20203;-67
2022/04/20 01:53:19;;;;;;;1999.90;999.90;;;10.60;91.10;;;;;;5031875;28;20237;-67
2022/04/20 01:55:45;;;;;;;1999.90;999.90;;;10.50;93.70;;;;;;5031648;28;20907;-66
2022/04/20 01:58:10;;;;;;;1999.90;999.90;;;10.60;94.80;;;;;;5031865;28;20206;-67
2022/04/20 02:00:36;;;;;;;1999.90;999.90;;;10.50;96.00;;;;;;5031734;28;20199;-66
2022/04/20 02:03:01;;;;;;;1999.90;999.90;;;10.50;97.00;;;;;;5031804;28;20645;-67
2022/04/20 02:05:27;;;;;;;1999.90;999.90;;;10.50;99.40;;;;;;5031524;28;20168;-67
2022/04/20 02:07:53;;;;;;;1999.90;999.90;;;10.50;99.90;;;;;;5031886;28;20703;-67
2022/04/20 02:10:19;;;;;;;1999.90;999.90;;;10.50;99.90;;;;;;5031791;28;20200;-66
2022/04/20 02:12:45;;;;;;;1999.90;999.90;;;10.40;99.90;;;;;;5031765;28;20172;-67
2022/04/20 02:15:10;;;;;;;1999.90;999.90;;;10.40;99.90;;;;;;5031561;28;20483;-67
2022/04/20 02:17:36;;;;;;;1999.90;999.90;;;10.40;99.90;;;;;;5031734;28;20255;-66
2022/04/20 02:20:02;;;;;;;1999.90;999.90;;;10.40;99.90;;;;;;5031679;28;20195;-67
2022/04/20 02:22:28;;;;;;;1999.90;999.90;;;10.30;99.90;;;;;;5031761;28;20195;-67
2022/04/20 02:24:54;;;;;;;1999.90;999.90;;;10.30;99.90;;;;;;5031475;28;20942;-67
2022/04/20 02:27:19;;;;;;;1999.90;999.90;;;10.30;99.90;;;;;;5031628;28;20168;-67
2022/04/20 02:29:47;;;;;;;1999.90;999.90;;;10.20;99.90;;;;;;5031635;28;20227;-67
2022/04/20 02:32:12;;;;;;;1999.90;999.90;;;10.20;99.90;;;;;;5031801;28;20190;-66
2022/04/20 02:34:38;;;;;;;1999.90;999.90;;;10.10;99.90;;;;;;5031274;28;20500;-67
2022/04/20 02:37:05;;;;;;;1999.90;999.90;;;10.10;99.90;;;;;;5031627;28;20230;-67
2022/04/20 02:39:32;;;;;;;1999.90;999.90;;;10.10;99.90;;;;;;5031432;28;20261;-66
2022/04/20 02:41:58;;;;;;;1999.90;999.90;;;10.10;99.90;;;;;;5031543;28;20433;-67
2022/04/20 02:44:24;;;;;;;1999.90;999.90;;;10.00;99.90;;;;;;5031273;28;20437;-67
2022/04/20 02:46:49;;;;;;;1999.90;999.90;;;10.10;99.90;;;;;;5031483;28;20407;-67
2022/04/20 02:49:16;;;;;;;1999.90;999.90;;;10.00;99.90;;;;;;5031371;28;20210;-67
2022/04/20 02:51:42;;;;;;;1999.90;999.90;;;10.00;99.90;;;;;;5031533;28;20217;-66
2022/04/20 02:54:07;;;;;;;1999.90;999.90;;;10.00;99.90;;;;;;5031136;28;20406;-66
2022/04/20 02:56:33;;;;;;;1999.90;999.90;;;9.90;99.90;;;;;;5031347;28;20445;-67
2022/04/20 02:58:58;;;;;;;1999.90;999.90;;;9.90;99.90;;;;;;5031270;28;20681;-67
2022/04/20 03:01:25;;;;;;;1999.90;999.90;;;9.80;99.90;;;;;;5031265;28;20624;-66
2022/04/20 03:03:51;;;;;;;1999.90;999.90;;;9.80;99.90;;;;;;5031195;28;20203;-66
2022/04/20 03:06:16;;;;;;;1999.90;999.90;;;9.70;99.90;;;;;;5031100;28;20448;-67
2022/04/20 03:08:42;;;;;;;1999.90;999.90;;;9.70;99.90;;;;;;5031283;28;20199;-67
2022/04/20 03:11:08;;;;;;;1999.90;999.90;;;9.70;99.90;;;;;;5032378;28;20688;-67
2022/04/20 03:13:34;;;;;;;1999.90;999.90;;;9.70;99.90;;;;;;5034722;28;20604;-67
2022/04/20 03:15:59;;;;;;;1999.90;999.90;;;9.70;99.90;;;;;;5034465;28;20407;-66
2022/04/20 03:18:26;;;;;;;1999.90;999.90;;;9.70;99.90;;;;;;5034582;28;20624;-67
2022/04/20 03:20:52;;;;;;;1999.90;999.90;;;9.70;99.90;;;;;;5034730;28;20187;-67
2022/04/20 03:23:18;;;;;;;1999.90;999.90;;;9.70;99.90;;;;;;5034712;28;20497;-66
2022/04/20 03:25:43;;;;;;;1999.90;999.90;;;9.70;99.90;;;;;;5034271;28;20740;-66
2022/04/20 03:28:09;;;;;;;1999.90;999.90;;;9.70;99.90;;;;;;5034518;28;20184;-67
2022/04/20 03:30:38;;;;;;;1999.90;999.90;;;9.60;99.90;;;;;;5034468;28;20239;-67
2022/04/20 03:33:05;;;;;;;1999.90;999.90;;;9.60;99.90;;;;;;5034521;28;20614;-67
2022/04/20 03:35:30;;;;;;;1999.90;999.90;;;9.60;99.90;;;;;;5034180;28;20410;-67
2022/04/20 03:37:56;;;;;;;1999.90;999.90;;;9.60;99.90;;;;;;5034341;28;20512;-67
2022/04/20 03:40:22;;;;;;;1999.90;999.90;;;9.50;99.90;;;;;;5034291;28;20564;-67
2022/04/20 03:42:47;;;;;;;1999.90;999.90;;;9.50;99.90;;;;;;5034266;28;20406;-67
2022/04/20 03:45:13;;;;;;;1999.90;999.90;;;9.50;99.90;;;;;;5034006;28;20250;-67
2022/04/20 03:47:38;;;;;;;1999.90;999.90;;;9.50;99.90;;;;;;5034109;28;20169;-66
2022/04/20 03:50:05;;;;;;;1999.90;999.90;;;9.50;99.90;;;;;;5034105;28;20191;-67
2022/04/20 03:52:30;;;;;;;1999.90;999.90;;;9.50;99.90;;;;;;5034070;28;20175;-67
2022/04/20 03:54:56;;;;;;;1999.90;999.90;;;9.50;99.90;;;;;;5033744;28;20430;-67
2022/04/20 03:57:22;;;;;;;1999.90;999.90;;;9.50;99.90;;;;;;5034103;28;20212;-67
2022/04/20 03:59:48;;;;;;;1999.90;999.90;;;9.50;99.90;;;;;;5033963;28;20216;-67
2022/04/20 04:02:13;;;;;;;1999.90;999.90;;;9.50;99.90;;;;;;5033870;28;20508;-66
2022/04/20 04:04:39;;;;;;;1999.90;999.90;;;9.40;99.90;;;;;;5033557;28;20171;-67
2022/04/20 04:07:04;;;;;;;1999.90;999.90;;;9.40;99.90;;;;;;5034141;28;20191;-67
2022/04/20 04:09:30;;;;;;;1999.90;999.90;;;9.40;99.90;;;;;;5033821;28;20198;-67
2022/04/20 04:11:56;;;;;;;1999.90;999.90;;;9.40;99.90;;;;;;5033983;28;20176;-67
2022/04/20 04:14:22;;;;;;;1999.90;999.90;;;9.30;99.90;;;;;;5033430;28;20584;-66
2022/04/20 04:16:48;;;;;;;1999.90;999.90;;;9.30;99.90;;;;;;5033626;28;20257;-67
2022/04/20 04:19:14;;;;;;;1999.90;999.90;;;9.20;99.90;;;;;;5033552;28;20504;-67
2022/04/20 04:21:39;;;;;;;1999.90;999.90;;;9.20;99.90;;;;;;5033240;28;20442;-67
2022/04/20 04:24:07;;;;;;;1999.90;999.90;;;9.20;99.90;;;;;;5032440;28;20175;-67
2022/04/20 04:26:32;;;;;;;1999.90;999.90;;;9.20;99.90;;;;;;5033654;28;20497;-67
2022/04/20 04:28:58;;;;;;;1999.90;999.90;;;9.20;99.90;;;;;;5033356;28;20938;-67
2022/04/20 04:31:24;;;;;;;1999.90;999.90;;;9.10;99.90;;;;;;5033295;28;20183;-66
2022/04/20 04:33:50;;;;;;;1999.90;999.90;;;9.10;99.90;;;;;;5033314;28;20221;-67
2022/04/20 04:36:15;;;;;;;1999.90;999.90;;;9.10;99.90;;;;;;5033023;28;20463;-67
2022/04/20 04:38:41;;;;;;;1999.90;999.90;;;9.10;99.90;;;;;;5033100;28;20798;-67
2022/04/20 04:41:06;;;;;;;1999.90;999.90;;;9.00;99.90;;;;;;5033186;28;20195;-67
2022/04/20 04:43:32;;;;;;;1999.90;999.90;;;9.00;99.90;;;;;;5033318;28;20202;-67
2022/04/20 04:48:42;;;;;;;1999.90;999.90;;;9.00;99.90;;;;;;5033292;28;20731;-67
2022/04/20 04:51:10;;;;;;;1999.90;999.90;;;9.00;99.90;;;;;;5032957;28;20461;-66
2022/04/20 04:53:39;;;;;;;1999.90;999.90;;;9.10;99.90;;;;;;5033082;28;20209;-66
2022/04/20 04:56:04;;;;;;;1999.90;999.90;;;9.10;99.90;;;;;;5032565;28;20507;-66
2022/04/20 04:58:30;;;;;;;1999.90;999.90;;;9.10;99.90;;;;;;5032693;28;20599;-67
2022/04/20 05:00:57;;;;;;;1999.90;999.90;;;9.10;99.90;;;;;;5032641;28;20167;-67
2022/04/20 05:03:22;;;;;;;1999.90;999.90;;;9.10;99.90;;;;;;5032796;28;20185;-67
2022/04/20 05:05:48;;;;;;;1999.90;999.90;;;9.10;99.90;;;;;;5032329;28;20410;-67
2022/04/20 05:08:14;;;;;;;1999.90;999.90;;;9.10;99.90;;;;;;5032705;28;20176;-67
2022/04/20 05:10:40;;;;;;;1999.90;999.90;;;9.10;99.90;;;;;;5032552;28;20749;-67
2022/04/20 05:13:06;;;;;;;1999.90;999.90;;;9.20;99.90;;;;;;5032610;28;20198;-67
2022/04/20 05:15:32;;;;;;;1999.90;999.90;;;9.10;99.90;;;;;;5032284;28;20803;-67
2022/04/20 05:17:58;;;;;;;1999.90;999.90;;;9.20;99.90;;;;;;5032455;28;20458;-67
2022/04/20 05:20:24;;;;;;;1999.90;999.90;;;9.20;99.90;;;;;;5032408;28;20560;-67
2022/04/20 05:22:50;;;;;;;1999.90;999.90;;;9.30;99.90;;;;;;5032539;28;20476;-67
2022/04/20 05:25:16;;;;;;;1999.90;999.90;;;9.40;99.90;;;;;;5032144;28;20178;-67
2022/04/20 05:27:42;;;;;;;1999.90;999.90;;;9.40;99.90;;;;;;5032387;28;20171;-67
2022/04/20 05:30:09;;;;;;;1999.90;999.90;;;9.50;99.90;;;;;;5032250;28;20480;-67
2022/04/20 05:32:35;;;;;;;1999.90;999.90;;;9.50;99.90;;;;;;5032316;28;20762;-67
2022/04/20 05:35:01;;;;;;;1999.90;999.90;;;9.50;99.90;;;;;;5031532;28;20418;-67
2022/04/20 05:42:56;;;;;;;1999.90;999.90;;;9.70;99.90;;;;;;5032283;28;20440;-67
2022/04/20 05:45:22;;;;;;;1999.90;999.90;;;9.70;99.90;;;;;;5031773;28;20404;-67
2022/04/20 05:47:48;;;;;;;1999.90;999.90;;;9.80;99.90;;;;;;5032070;28;20393;-67
2022/04/20 05:50:13;;;;;;;1999.90;999.90;;;9.90;99.90;;;;;;5031997;28;20593;-67
2022/04/20 05:52:39;;;;;;;1999.90;999.90;;;10.00;99.90;;;;;;5032313;28;20198;-67
2022/04/20 05:55:05;;;;;;;1999.90;999.90;;;10.00;99.90;;;;;;5031742;28;20168;-67
2022/04/20 05:57:33;;;;;;;1999.90;999.90;;;10.10;99.90;;;;;;5031891;28;20182;-67
2022/04/20 05:59:58;;;;;;;1999.90;999.90;;;10.10;99.90;;;;;;5031754;28;20944;-67
2022/04/20 06:02:24;;;;;;;1999.90;999.90;;;10.20;99.90;;;;;;5031785;28;20437;-67
2022/04/20 06:04:49;;;;;;;1999.90;999.90;;;10.30;99.90;;;;;;5031697;28;20187;-67
2022/04/20 06:07:15;;;;;;;1999.90;999.90;;;10.40;99.90;;;;;;5032075;28;20534;-67
2022/04/20 06:09:41;;;;;;;1999.90;999.90;;;10.40;99.90;;;;;;5030585;28;20193;-67
2022/04/20 06:12:07;;;;;;;1999.90;999.90;;;10.50;99.90;;;;;;5031834;28;20405;-67
2022/04/20 06:14:33;;;;;;;1999.90;999.90;;;10.60;99.90;;;;;;5031465;28;20171;-67
2022/04/20 06:16:59;;;;;;;1999.90;999.90;;;10.60;99.90;;;;;;5031826;28;20772;-67
2022/04/20 06:19:24;;;;;;;1999.90;999.90;;;10.70;99.90;;;;;;5031594;28;20818;-67
2022/04/20 06:21:50;;;;;;;1999.90;999.90;;;10.70;99.90;;;;;;5031680;28;20460;-67
2022/04/20 06:24:16;;;;;;;1999.90;999.90;;;10.90;99.90;;;;;;5031448;28;20540;-66
2022/04/20 06:26:41;;;;;;;1999.90;999.90;;;10.90;99.90;;;;;;5031999;28;20515;-67
2022/04/20 06:29:07;;;;;;;1999.90;999.90;;;11.00;99.90;;;;;;5031507;28;20200;-68
2022/04/20 06:31:33;;;;;;;1999.90;999.90;;;11.00;99.90;;;;;;5031645;28;20176;-67
2022/04/20 06:33:59;;;;;;;1999.90;999.90;;;11.20;99.90;;;;;;5031448;28;20169;-67
2022/04/20 06:36:26;;;;;;;1999.90;999.90;;;11.30;99.90;;;;;;5031683;28;20781;-68
2022/04/20 06:38:52;;;;;;;1999.90;999.90;;;11.30;99.90;;;;;;5031452;28;20458;-67
2022/04/20 06:41:18;;;;;;;1999.90;999.90;;;11.40;99.90;;;;;;5031577;28;20407;-67
2022/04/20 06:43:44;;;;;;;1999.90;999.90;;;11.50;99.90;;;;;;5031464;28;20403;-67
2022/04/20 06:46:10;;;;;;;1999.90;999.90;;;11.50;99.90;;;;;;5032575;28;20415;-67
2022/04/20 06:48:36;;;;;;;1999.90;999.90;;;11.60;99.90;;;;;;5035067;28;20407;-67
2022/04/20 06:51:02;;;;;;;1999.90;999.90;;;11.60;99.90;;;;;;5035261;28;20168;-67
2022/04/20 06:58:56;;;;;;;1999.90;999.90;;;11.80;99.90;;;;;;5035008;28;20525;-67
2022/04/20 07:01:21;;;;;;;1999.90;999.90;;;11.90;99.90;;;;;;5034030;22;20479;-70
2022/04/20 07:03:47;;;;;;;1999.90;999.90;;;11.90;99.90;;;;;;5015309;28;20172;-70
2022/04/20 07:06:12;;;;;;;1999.90;999.90;;;12.00;99.90;;;;;;5015105;28;20162;-69
2022/04/20 07:08:38;;;;;;;1999.90;999.90;;;12.10;99.90;;;;;;5015162;28;20175;-70
2022/04/20 07:11:05;;;;;;;1999.90;999.90;;;12.20;99.90;;;;;;5015078;28;20536;-70
2022/04/20 07:13:31;;;;;;;1999.90;999.90;;;12.30;99.90;;;;;;5015149;28;20409;-70
2022/04/20 07:15:57;;;;;;;1999.90;999.90;;;12.40;99.90;;;;;;5014711;28;20404;-70
2022/04/20 07:18:23;;;;;;;1999.90;999.90;;;12.40;99.90;;;;;;5014928;28;20441;-70
2022/04/20 07:20:49;;;;;;;1999.90;999.90;;;12.50;99.90;;;;;;5014975;28;20313;-69
2022/04/20 07:23:15;;;;;;;1999.90;999.90;;;12.50;99.90;;;;;;5014853;28;20405;-70
2022/04/20 07:25:41;;;;;;;1999.90;999.90;;;12.70;99.90;;;;;;5014652;28;20414;-70
2022/04/20 07:28:07;;;;;;;1999.90;999.90;;;12.80;99.90;;;;;;5014773;28;20978;-70
2022/04/20 07:30:34;;;;;;;1999.90;999.90;;;12.80;99.90;;;;;;5014677;28;20198;-69
2022/04/20 07:33:00;;;;;;;1999.90;999.90;;;12.90;99.90;;;;;;5012899;28;20429;-70
2022/04/20 07:35:25;;;;;;;1999.90;999.90;;;12.90;99.90;;;;;;5013983;28;20831;-70
2022/04/20 07:37:51;;;;;;;1999.90;999.90;;;12.90;99.90;;;;;;5014328;28;20413;-70
2022/04/20 07:40:17;;;;;;;1999.90;999.90;;;13.10;99.90;;;;;;5013176;28;20567;-70
2022/04/20 07:42:43;;;;;;;1999.90;999.90;;;13.20;99.90;;;;;;5013046;28;20219;-70
2022/04/20 07:45:09;;;;;;;1999.90;999.90;;;13.30;99.90;;;;;;5012904;28;20524;-70
2022/04/20 07:47:35;;;;;;;1999.90;999.90;;;13.40;99.90;;;;;;5014399;28;20402;-70
2022/04/20 07:50:19;;;;;;;1999.90;999.90;;;13.60;99.90;;;;;;5014303;28;20794;-70
2022/04/20 07:52:48;;;;;;;1999.90;999.90;;;13.50;95.20;;;;;;5014434;28;20193;-70
2022/04/20 07:55:20;;;;;;;1999.90;999.90;;;13.60;97.10;;;;;;5014009;28;20537;-70
2022/04/20 07:57:45;;;;;;;1999.90;999.90;;;13.60;91.80;;;;;;5013889;28;20775;-70
2022/04/20 08:00:14;;;;;;;1999.90;999.90;;;13.70;94.50;;;;;;5014045;28;20505;-70
2022/04/20 08:02:41;;;;;;;1999.90;999.90;;;13.80;95.40;;;;;;5014263;28;20168;-70
2022/04/20 08:05:07;;;;;;;1999.90;999.90;;;13.90;91.80;;;;;;5013812;28;20905;-70
2022/04/20 08:07:33;;;;;;;1999.90;999.90;;;13.90;91.80;;;;;;5014069;28;20409;-70
2022/04/20 08:09:59;;;;;;;1999.90;999.90;;;13.90;85.00;;;;;;5013810;28;20523;-70
2022/04/20 08:12:28;;;;;;;1999.90;999.90;;;14.00;82.90;;;;;;5013972;28;20768;-70
2022/04/20 08:14:54;;;;;;;1999.90;999.90;;;14.00;78.20;;;;;;5013473;28;20167;-70
2022/04/20 08:17:20;;;;;;;1999.90;999.90;;;14.10;76.40;;;;;;5013862;28;20416;-70
2022/04/20 08:19:45;;;;;;;1999.90;999.90;;;14.10;74.80;;;;;;5013690;28;20812;-70
2022/04/20 08:22:14;;;;;;;1999.90;999.90;;;14.20;78.60;;;;;;5013849;28;20172;-70
2022/04/20 08:24:43;;;;;;;1999.90;999.90;;;14.30;69.70;;;;;;5013665;28;20580;-70
2022/04/20 08:27:14;;;;;;;1999.90;999.90;;;14.40;67.30;;;;;;5013725;28;20396;-70
2022/04/20 08:29:40;;;;;;;1999.90;999.90;;;14.40;62.80;;;;;;5013690;28;20425;-70
2022/04/20 08:32:06;;;;;;;1999.90;999.90;;;14.40;60.60;;;;;;5013534;28;20418;-70
2022/04/20 08:34:31;;;;;;;1999.90;999.90;;;14.50;59.50;;;;;;5013357;28;20718;-71
2022/04/20 08:36:57;;;;;;;1999.90;999.90;;;14.50;61.50;;;;;;5013527;28;20413;-71
2022/04/20 08:39:22;;;;;;;1999.90;999.90;;;14.60;64.70;;;;;;5013321;28;20201;-71
2022/04/20 08:41:49;;;;;;;1999.90;999.90;;;14.80;63.20;;;;;;5013437;28;20204;-71
2022/04/20 08:44:26;;;;;;;1999.90;999.90;;;14.90;62.70;;;;;;5013199;28;20792;-71
2022/04/20 08:46:55;;;;;;;1999.90;999.90;;;15.00;60.50;;;;;;5013339;28;20392;-70
2022/04/20 08:49:21;;;;;;;1999.90;999.90;;;15.10;59.20;;;;;;5013398;28;20406;-71
2022/04/20 08:54:34;;;;;;;1999.90;999.90;;;15.40;57.90;;;;;;5013151;28;20426;-71
2022/04/20 08:57:16;;;;;;;1999.90;999.90;;;15.40;53.50;;;;;;5013142;28;20412;-71
2022/04/20 08:59:49;;;;;;;1999.90;999.90;;;15.30;52.80;;;;;;5012950;28;20205;-70
2022/04/20 09:02:19;;;;;;;1999.90;999.90;;;15.30;52.50;;;;;;5013249;28;20470;-71
2022/04/20 09:04:45;;;;;;;1999.90;999.90;;;15.30;54.50;;;;;;5012789;28;20408;-71
2022/04/20 09:07:15;;;;;;;1999.90;999.90;;;15.30;54.20;;;;;;5013005;28;20399;-70
2022/04/20 09:09:40;;;;;;;1999.90;999.90;;;15.50;56.50;;;;;;5012219;28;20783;-71
2022/04/20 09:12:14;;;;;;;1999.90;999.90;;;15.70;51.30;;;;;;5012880;28;20407;-70
2022/04/20 09:14:41;;;;;;;1999.90;999.90;;;15.80;48.10;;;;;;5012639;28;20258;-70
2022/04/20 09:17:11;;;;;;;1999.90;999.90;;;15.90;51.70;;;;;;5012878;28;20407;-70
2022/04/20 09:19:37;;;;;;;1999.90;999.90;;;16.00;45.60;;;;;;5012654;28;20455;-71
2022/04/20 09:22:25;;;;;;;1999.90;999.90;;;16.10;44.60;;;;;;5012728;28;20511;-71
2022/04/20 09:25:04;;;;;;;1999.90;999.90;;;16.20;43.00;;;;;;5012402;28;20507;-71
2022/04/20 09:27:30;;;;;;;1999.90;999.90;;;16.30;40.90;;;;;;5012656;28;20410;-71
2022/04/20 09:29:57;;;;;;;1999.90;999.90;;;16.30;37.00;;;;;;5012582;28;20430;-71
2022/04/20 09:32:40;;;;;;;1999.90;999.90;;;16.40;40.90;;;;;;5012718;28;20790;-71
2022/04/20 09:35:09;;;;;;;1999.90;999.90;;;16.40;38.90;;;;;;5012373;28;20501;-71
2022/04/20 09:37:36;;;;;;;1999.90;999.90;;;16.40;39.90;;;;;;5012502;28;20425;-70
2022/04/20 09:40:05;;;;;;;1999.90;999.90;;;16.40;36.40;;;;;;5012414;28;20462;-71
2022/04/20 09:42:32;;;;;;;1999.90;999.90;;;16.50;38.80;;;;;;5012434;28;20404;-71
2022/04/20 09:45:03;;;;;;;1999.90;999.90;;;16.60;39.60;;;;;;5012092;28;20900;-70
2022/04/20 09:50:24;;;;;;;1999.90;999.90;;;16.60;37.10;;;;;;5012613;28;20429;-71
2022/04/20 09:52:54;;;;;;;1999.90;999.90;;;16.70;40.00;;;;;;5012183;28;20484;-71
2022/04/20 09:55:31;;;;;;;1999.90;999.90;;;16.80;36.60;;;;;;5011922;28;20483;-70
2022/04/20 09:58:19;;;;;;;1999.90;999.90;;;17.10;37.30;;;;;;5012481;28;20916;-71
2022/04/20 10:00:52;;;;;;;1999.90;999.90;;;17.30;37.20;;;;;;5012137;28;20440;-71
2022/04/20 10:03:24;;;;;;;1999.90;999.90;;;17.50;36.30;;;;;;5012273;28;20890;-71
2022/04/20 10:05:50;;;;;;;1999.90;999.90;;;17.70;37.50;;;;;;5011983;28;20769;-71
2022/04/20 10:08:17;;;;;;;1999.90;999.90;;;17.80;36.50;;;;;;5012167;28;20417;-71
2022/04/20 10:10:44;;;;;;;1999.90;999.90;;;17.90;34.70;;;;;;5012060;28;20427;-72
2022/04/20 10:13:10;;;;;;;1999.90;999.90;;;18.00;32.50;;;;;;5012157;28;20411;-71
2022/04/20 10:18:21;;;;;;;1999.90;999.90;;;18.10;29.20;;;;;;5012317;28;20452;-71
2022/04/20 10:20:50;;;;;;;1999.90;999.90;;;18.10;30.80;;;;;;5014590;28;20421;-71
2022/04/20 10:23:20;;;;;;;1999.90;999.90;;;18.10;30.20;;;;;;5016187;28;20412;-70
2022/04/20 10:25:47;;;;;;;1999.90;999.90;;;18.10;29.80;;;;;;5015908;28;20400;-71
2022/04/20 10:28:33;;;;;;;1999.90;999.90;;;18.20;30.70;;;;;;5016070;28;20497;-71
2022/04/20 10:31:23;;;;;;;1999.90;999.90;;;18.30;30.10;;;;;;5008413;28;20526;-71
2022/04/20 10:33:49;;;;;;;1999.90;999.90;;;18.50;29.10;;;;;;5015858;28;20402;-71
2022/04/20 10:36:17;;;;;;;1999.90;999.90;;;18.60;27.20;;;;;;5015614;28;20526;-71
2022/04/20 10:38:45;;;;;;;1999.90;999.90;;;18.80;28.50;;;;;;5015699;28;20538;-71
2022/04/20 10:41:18;;;;;;;1999.90;999.90;;;18.80;28.80;;;;;;5015551;28;20969;-71
2022/04/20 10:43:44;;;;;;;1999.90;999.90;;;18.90;28.00;;;;;;5015880;28;20833;-71
2022/04/20 10:46:20;;;;;;;1999.90;999.90;;;19.00;29.40;;;;;;5015446;28;20397;-71
2022/04/20 10:49:00;;;;;;;1999.90;999.90;;;19.10;28.40;;;;;;5015697;28;20459;-71
2022/04/20 10:51:37;;;;;;;1999.90;999.90;;;19.30;28.20;;;;;;5015561;28;20954;-70
2022/04/20 10:54:24;;;;;;;1999.90;999.90;;;19.40;28.30;;;;;;5015233;28;20407;-72
2022/04/20 10:57:10;;;;;;;1999.90;999.90;;;19.40;26.30;;;;;;5015536;28;20404;-71
2022/04/20 10:59:37;;;;;;;1999.90;999.90;;;19.50;25.60;;;;;;5015062;28;20485;-71
2022/04/20 11:02:02;;;;;;;1999.90;999.90;;;19.60;25.50;;;;;;5015241;28;20419;-71
2022/04/20 11:04:48;;;;;;;1999.90;999.90;;;19.70;24.60;;;;;;5015127;28;20406;-71
2022/04/20 11:07:17;;;;;;;1999.90;999.90;;;19.80;24.80;;;;;;5015120;28;20165;-71
2022/04/20 11:09:44;;;;;;;1999.90;999.90;;;19.90;27.40;;;;;;5015135;28;20405;-70
2022/04/20 11:21:03;;;;;;;1999.90;999.90;;;20.20;23.90;;;;;;5014674;28;21018;-69
2022/04/20 11:24:01;;;;;;;1999.90;999.90;;;20.10;24.10;;;;;;5014777;28;20402;-69
2022/04/20 11:26:28;;;;;;;1999.90;999.90;;;19.90;25.90;;;;;;5014828;28;20408;-69
2022/04/20 11:28:56;;;;;;;1999.90;999.90;;;19.90;24.60;;;;;;5014810;28;20410;-69
2022/04/20 11:31:22;;;;;;;1999.90;999.90;;;19.90;26.40;;;;;;5013960;28;20450;-69
2022/04/20 11:33:47;;;;;;;1999.90;999.90;;;20.00;24.40;;;;;;5014718;28;20485;-69
2022/04/20 11:36:14;;;;;;;1999.90;999.90;;;20.10;24.60;;;;;;5014474;28;20414;-69
2022/04/20 11:38:42;;;;;;;1999.90;999.90;;;20.30;23.60;;;;;;5014694;28;20196;-69
2022/04/20 11:41:12;;;;;;;1999.90;999.90;;;20.50;23.70;;;;;;5014724;28;20843;-69
2022/04/20 11:43:41;;;;;;;1999.90;999.90;;;20.50;22.90;;;;;;5014540;28;20404;-69
2022/04/20 11:46:08;;;;;;;1999.90;999.90;;;20.80;23.00;;;;;;5014369;28;20408;-69
2022/04/20 11:48:37;;;;;;;1999.90;999.90;;;20.90;21.70;;;;;;5014585;28;20420;-70
2022/04/20 11:51:08;;;;;;;1999.90;999.90;;;21.00;22.80;;;;;;5014505;28;20934;-69
2022/04/20 11:53:39;;;;;;;1999.90;999.90;;;21.30;21.50;;;;;;5014589;28;20466;-68
2022/04/20 11:56:12;;;;;;;1999.90;999.90;;;22.00;22.20;;;;;;5014058;28;20441;-69
2022/04/20 11:58:38;;;;;;;1999.90;999.90;;;22.90;21.10;;;;;;5014228;28;20509;-69
2022/04/20 12:01:08;;;;;;;1999.90;999.90;;;23.80;18.50;;;;;;5014119;28;20879;-69
2022/04/20 12:03:42;;;;;;;1999.90;999.90;;;24.50;17.70;;;;;;5014156;28;20406;-69
2022/04/20 12:06:14;;;;;;;1999.90;999.90;;;25.20;15.30;;;;;;5013889;28;20796;-70
2022/04/20 12:08:40;;;;;;;1999.90;999.90;;;25.40;13.30;;;;;;5014032;28;20657;-69
2022/04/20 12:11:08;;;;;;;1999.90;999.90;;;25.80;13.30;;;;;;5013967;28;20980;-69
2022/04/20 12:13:35;;;;;;;1999.90;999.90;;;26.20;13.70;;;;;;5013957;28;20420;-70
2022/04/20 12:16:08;;;;;;;1999.90;999.90;;;26.80;12.80;;;;;;5013636;28;20419;-70
2022/04/20 12:18:36;;;;;;;1999.90;999.90;;;27.20;11.10;;;;;;5013696;28;20965;-69
2022/04/20 12:21:07;;;;;;;1999.90;999.90;;;27.70;9.60;;;;;;5013579;28;20432;-69
2022/04/20 12:23:36;;;;;;;1999.90;999.90;;;27.80;10.20;;;;;;5013711;28;20440;-69
2022/04/20 12:26:05;;;;;;;1999.90;999.90;;;28.20;9.00;;;;;;5013507;28;20893;-69
2022/04/20 12:28:41;;;;;;;1999.90;999.90;;;28.70;9.20;;;;;;5013610;28;20404;-69
2022/04/20 12:31:09;;;;;;;1999.90;999.90;;;28.80;6.60;;;;;;5013492;28;20518;-69
2022/04/20 12:33:37;;;;;;;1999.90;999.90;;;29.30;7.10;;;;;;5013453;28;20838;-69